sensor_id;sensor_type;location;lat;lon;timestamp;pressure;altitude;pressure_sealevel;temperature;humidity
20444;BME280;10381;53.730;10.010;2024-02-04T00:02:09;101461.31;;;5.23;100.00
20444;BME280;10381;53.730;10.010;2024-02-04T00:06:20;101452.78;;;5.20;100.00
20444;BME280;10381;53.730;10.010;2024-02-04T00:10:20;101449.13;;;5.06;100.00
20444;BME280;10381;53.730;10.010;2024-02-04T00:14:20;101445.84;;;5.03;100.00
20444;BME280;10381;53.730;10.010;2024-02-04T00:18:21;101457.31;;;5.00;100.00
20444;BME280;10381;53.730;10.010;2024-02-04T00:22:21;101467.94;;;4.99;100.00
20444;BME280;10381;53.730;10.010;2024-02-04T00:26:21;101464.72;;;4.94;100.00
20444;BME280;10381;53.730;10.010;2024-02-04T00:30:22;101451.34;;;4.98;100.00
20444;BME280;10381;53.730;10.010;2024-02-04T00:34:22;101450.06;;;5.05;100.00
20444;BME280;10381;53.730;10.010;2024-02-04T00:38:22;101429.38;;;4.99;100.00
20444;BME280;10381;53.730;10.010;2024-02-04T00:42:22;101428.25;;;4.87;100.00
20444;BME280;10381;53.730;10.010;2024-02-04T00:46:23;101395.91;;;4.87;100.00
20444;BME280;10381;53.730;10.010;2024-02-04T00:50:23;101386.69;;;4.80;100.00
20444;BME280;10381;53.730;10.010;2024-02-04T00:54:23;101378.47;;;4.70;100.00
20444;BME280;10381;53.730;10.010;2024-02-04T00:58:24;101381.34;;;4.65;100.00
20444;BME280;10381;53.730;10.010;2024-02-04T01:02:24;101383.53;;;4.73;100.00
20444;BME280;10381;53.730;10.010;2024-02-04T01:06:25;101383.13;;;4.81;100.00
20444;BME280;10381;53.730;10.010;2024-02-04T01:10:25;101372.13;;;4.74;100.00
20444;BME280;10381;53.730;10.010;2024-02-04T01:14:26;101362.22;;;4.79;100.00
20444;BME280;10381;53.730;10.010;2024-02-04T01:18:26;101367.81;;;4.89;100.00
20444;BME280;10381;53.730;10.010;2024-02-04T01:22:26;101371.78;;;4.96;100.00
20444;BME280;10381;53.730;10.010;2024-02-04T01:26:27;101385.56;;;5.00;100.00
20444;BME280;10381;53.730;10.010;2024-02-04T01:30:27;101381.34;;;5.13;100.00
20444;BME280;10381;53.730;10.010;2024-02-04T01:34:30;101384.63;;;5.17;100.00
20444;BME280;10381;53.730;10.010;2024-02-04T01:38:30;101374.56;;;5.25;100.00
20444;BME280;10381;53.730;10.010;2024-02-04T01:42:31;101390.81;;;5.31;100.00
20444;BME280;10381;53.730;10.010;2024-02-04T01:46:31;101401.47;;;5.44;100.00
20444;BME280;10381;53.730;10.010;2024-02-04T01:50:32;101412.91;;;5.43;100.00
20444;BME280;10381;53.730;10.010;2024-02-04T01:54:33;101408.16;;;5.50;100.00
20444;BME280;10381;53.730;10.010;2024-02-04T01:58:34;101404.75;;;5.48;100.00
20444;BME280;10381;53.730;10.010;2024-02-04T02:02:38;101404.94;;;5.61;100.00
20444;BME280;10381;53.730;10.010;2024-02-04T02:06:39;101413.91;;;5.57;100.00
20444;BME280;10381;53.730;10.010;2024-02-04T02:10:42;101408.59;;;5.58;100.00
20444;BME280;10381;53.730;10.010;2024-02-04T02:15:01;101418.53;;;5.67;100.00
20444;BME280;10381;53.730;10.010;2024-02-04T02:19:21;101411.41;;;5.69;100.00
20444;BME280;10381;53.730;10.010;2024-02-04T02:23:35;101408.66;;;5.57;100.00
20444;BME280;10381;53.730;10.010;2024-02-04T02:27:46;101402.13;;;5.48;100.00
20444;BME280;10381;53.730;10.010;2024-02-04T02:31:47;101389.94;;;5.47;100.00
20444;BME280;10381;53.730;10.010;2024-02-04T02:35:51;101403.66;;;5.52;100.00
20444;BME280;10381;53.730;10.010;2024-02-04T02:40:09;101390.88;;;5.46;100.00
20444;BME280;10381;53.730;10.010;2024-02-04T02:44:11;101384.88;;;5.44;100.00
20444;BME280;10381;53.730;10.010;2024-02-04T02:48:12;101381.31;;;5.29;100.00
20444;BME280;10381;53.730;10.010;2024-02-04T02:52:13;101375.91;;;5.32;100.00
20444;BME280;10381;53.730;10.010;2024-02-04T02:56:13;101380.97;;;5.35;100.00
20444;BME280;10381;53.730;10.010;2024-02-04T03:00:14;101375.47;;;5.24;100.00
20444;BME280;10381;53.730;10.010;2024-02-04T03:04:15;101353.03;;;5.18;100.00
20444;BME280;10381;53.730;10.010;2024-02-04T03:08:15;101349.38;;;5.21;100.00
20444;BME280;10381;53.730;10.010;2024-02-04T03:12:17;101326.97;;;5.15;100.00
20444;BME280;10381;53.730;10.010;2024-02-04T03:16:17;101333.97;;;5.15;100.00
20444;BME280;10381;53.730;10.010;2024-02-04T03:20:17;101321.97;;;5.10;100.00
20444;BME280;10381;53.730;10.010;2024-02-04T03:24:17;101329.47;;;5.17;100.00
20444;BME280;10381;53.730;10.010;2024-02-04T03:28:18;101325.00;;;5.19;100.00
20444;BME280;10381;53.730;10.010;2024-02-04T03:32:19;101332.03;;;5.18;100.00
20444;BME280;10381;53.730;10.010;2024-02-04T03:36:22;101327.97;;;5.12;100.00
20444;BME280;10381;53.730;10.010;2024-02-04T03:40:23;101324.06;;;5.20;100.00
20444;BME280;10381;53.730;10.010;2024-02-04T03:44:25;101315.94;;;5.08;100.00
20444;BME280;10381;53.730;10.010;2024-02-04T03:48:26;101310.25;;;5.00;100.00
20444;BME280;10381;53.730;10.010;2024-02-04T03:52:26;101307.16;;;4.94;100.00
20444;BME280;10381;53.730;10.010;2024-02-04T03:56:26;101295.53;;;4.98;100.00
20444;BME280;10381;53.730;10.010;2024-02-04T04:00:26;101277.19;;;4.82;100.00
20444;BME280;10381;53.730;10.010;2024-02-04T04:04:27;101282.50;;;4.96;100.00
20444;BME280;10381;53.730;10.010;2024-02-04T04:08:27;101285.31;;;4.93;100.00
20444;BME280;10381;53.730;10.010;2024-02-04T04:12:27;101285.66;;;4.87;100.00
20444;BME280;10381;53.730;10.010;2024-02-04T04:16:28;101279.31;;;4.91;100.00
20444;BME280;10381;53.730;10.010;2024-02-04T04:20:28;101265.94;;;4.80;100.00
20444;BME280;10381;53.730;10.010;2024-02-04T04:24:28;101260.25;;;4.87;100.00
20444;BME280;10381;53.730;10.010;2024-02-04T04:28:29;101263.63;;;4.74;100.00
20444;BME280;10381;53.730;10.010;2024-02-04T04:32:29;101265.16;;;4.78;100.00
20444;BME280;10381;53.730;10.010;2024-02-04T04:36:29;101264.56;;;4.73;100.00
20444;BME280;10381;53.730;10.010;2024-02-04T04:40:30;101264.31;;;4.77;100.00
20444;BME280;10381;53.730;10.010;2024-02-04T04:44:31;101254.75;;;4.76;100.00
20444;BME280;10381;53.730;10.010;2024-02-04T04:48:32;101253.13;;;4.74;100.00
20444;BME280;10381;53.730;10.010;2024-02-04T04:52:32;101242.16;;;4.67;100.00
20444;BME280;10381;53.730;10.010;2024-02-04T04:56:38;101222.53;;;4.58;100.00
20444;BME280;10381;53.730;10.010;2024-02-04T05:00:38;101215.41;;;4.60;100.00
20444;BME280;10381;53.730;10.010;2024-02-04T05:04:42;101209.06;;;4.64;100.00
20444;BME280;10381;53.730;10.010;2024-02-04T05:08:42;101209.13;;;4.63;100.00
20444;BME280;10381;53.730;10.010;2024-02-04T05:12:43;101212.19;;;4.55;100.00
20444;BME280;10381;53.730;10.010;2024-02-04T05:16:43;101193.91;;;4.54;100.00
20444;BME280;10381;53.730;10.010;2024-02-04T05:20:44;101192.22;;;4.53;100.00
20444;BME280;10381;53.730;10.010;2024-02-04T05:24:44;101195.78;;;4.52;100.00
20444;BME280;10381;53.730;10.010;2024-02-04T05:28:44;101191.72;;;4.62;100.00
20444;BME280;10381;53.730;10.010;2024-02-04T05:32:45;101188.84;;;4.51;100.00
20444;BME280;10381;53.730;10.010;2024-02-04T05:36:45;101190.84;;;4.61;100.00
20444;BME280;10381;53.730;10.010;2024-02-04T05:40:45;101183.06;;;4.60;100.00
20444;BME280;10381;53.730;10.010;2024-02-04T05:44:46;101173.34;;;4.62;100.00
20444;BME280;10381;53.730;10.010;2024-02-04T05:48:46;101165.53;;;4.60;100.00
20444;BME280;10381;53.730;10.010;2024-02-04T05:52:47;101154.28;;;4.58;100.00
20444;BME280;10381;53.730;10.010;2024-02-04T05:56:49;101160.13;;;4.63;100.00
20444;BME280;10381;53.730;10.010;2024-02-04T06:00:49;101169.28;;;4.56;100.00
20444;BME280;10381;53.730;10.010;2024-02-04T06:04:49;101172.13;;;4.67;100.00
20444;BME280;10381;53.730;10.010;2024-02-04T06:08:49;101174.84;;;4.66;100.00
20444;BME280;10381;53.730;10.010;2024-02-04T06:12:50;101178.16;;;4.69;100.00
20444;BME280;10381;53.730;10.010;2024-02-04T06:16:51;101171.38;;;4.65;100.00
20444;BME280;10381;53.730;10.010;2024-02-04T06:20:51;101161.38;;;4.72;100.00
20444;BME280;10381;53.730;10.010;2024-02-04T06:24:52;101163.88;;;4.74;100.00
20444;BME280;10381;53.730;10.010;2024-02-04T06:28:52;101164.84;;;4.73;100.00
20444;BME280;10381;53.730;10.010;2024-02-04T06:32:52;101154.53;;;4.69;100.00
20444;BME280;10381;53.730;10.010;2024-02-04T06:36:52;101151.38;;;4.79;100.00
20444;BME280;10381;53.730;10.010;2024-02-04T06:40:53;101145.94;;;4.82;100.00
20444;BME280;10381;53.730;10.010;2024-02-04T06:44:53;101148.03;;;4.91;100.00
20444;BME280;10381;53.730;10.010;2024-02-04T06:48:53;101148.78;;;4.93;100.00
20444;BME280;10381;53.730;10.010;2024-02-04T06:52:54;101140.88;;;4.79;100.00
20444;BME280;10381;53.730;10.010;2024-02-04T06:56:54;101136.66;;;4.90;100.00
20444;BME280;10381;53.730;10.010;2024-02-04T07:00:54;101131.84;;;4.83;100.00
20444;BME280;10381;53.730;10.010;2024-02-04T07:04:55;101121.09;;;4.87;100.00
20444;BME280;10381;53.730;10.010;2024-02-04T07:08:55;101117.81;;;4.84;100.00
20444;BME280;10381;53.730;10.010;2024-02-04T07:12:55;101119.03;;;4.93;100.00
20444;BME280;10381;53.730;10.010;2024-02-04T07:16:57;101129.16;;;4.84;100.00
20444;BME280;10381;53.730;10.010;2024-02-04T07:20:57;101144.06;;;4.84;100.00
20444;BME280;10381;53.730;10.010;2024-02-04T07:24:57;101133.66;;;4.82;100.00
20444;BME280;10381;53.730;10.010;2024-02-04T07:28:57;101142.78;;;4.91;100.00
20444;BME280;10381;53.730;10.010;2024-02-04T07:32:58;101134.31;;;5.00;100.00
20444;BME280;10381;53.730;10.010;2024-02-04T07:36:58;101131.59;;;4.87;100.00
20444;BME280;10381;53.730;10.010;2024-02-04T07:40:59;101123.38;;;4.94;100.00
20444;BME280;10381;53.730;10.010;2024-02-04T07:45:00;101131.13;;;4.95;100.00
20444;BME280;10381;53.730;10.010;2024-02-04T07:49:02;101136.13;;;5.00;100.00
20444;BME280;10381;53.730;10.010;2024-02-04T07:53:02;101144.84;;;5.00;100.00
20444;BME280;10381;53.730;10.010;2024-02-04T07:57:03;101140.44;;;5.01;100.00
20444;BME280;10381;53.730;10.010;2024-02-04T08:01:04;101140.00;;;5.08;100.00
20444;BME280;10381;53.730;10.010;2024-02-04T08:05:05;101140.00;;;5.08;100.00
20444;BME280;10381;53.730;10.010;2024-02-04T08:09:05;101136.41;;;5.09;100.00
20444;BME280;10381;53.730;10.010;2024-02-04T08:13:06;101146.66;;;5.14;100.00
20444;BME280;10381;53.730;10.010;2024-02-04T08:17:06;101149.84;;;5.19;100.00
20444;BME280;10381;53.730;10.010;2024-02-04T08:21:07;101148.81;;;5.22;100.00
20444;BME280;10381;53.730;10.010;2024-02-04T08:25:07;101154.06;;;5.22;100.00
20444;BME280;10381;53.730;10.010;2024-02-04T08:29:07;101144.03;;;5.28;100.00
20444;BME280;10381;53.730;10.010;2024-02-04T08:33:08;101149.09;;;5.31;100.00
20444;BME280;10381;53.730;10.010;2024-02-04T08:37:08;101138.16;;;5.39;100.00
20444;BME280;10381;53.730;10.010;2024-02-04T08:41:09;101147.50;;;5.43;100.00
20444;BME280;10381;53.730;10.010;2024-02-04T08:45:10;101154.47;;;5.44;100.00
20444;BME280;10381;53.730;10.010;2024-02-04T08:49:10;101145.63;;;5.45;100.00
20444;BME280;10381;53.730;10.010;2024-02-04T08:53:10;101128.84;;;5.48;100.00
20444;BME280;10381;53.730;10.010;2024-02-04T08:57:10;101140.09;;;5.50;100.00
20444;BME280;10381;53.730;10.010;2024-02-04T09:01:11;101147.63;;;5.56;100.00
20444;BME280;10381;53.730;10.010;2024-02-04T09:05:11;101124.72;;;5.58;100.00
20444;BME280;10381;53.730;10.010;2024-02-04T09:09:12;101139.47;;;5.61;100.00
20444;BME280;10381;53.730;10.010;2024-02-04T09:13:12;101148.06;;;5.63;100.00
20444;BME280;10381;53.730;10.010;2024-02-04T09:17:13;101154.06;;;5.65;100.00
20444;BME280;10381;53.730;10.010;2024-02-04T09:21:13;101145.81;;;5.71;100.00
20444;BME280;10381;53.730;10.010;2024-02-04T09:25:14;101155.09;;;5.76;100.00
20444;BME280;10381;53.730;10.010;2024-02-04T09:29:14;101165.72;;;5.75;100.00
20444;BME280;10381;53.730;10.010;2024-02-04T09:33:14;101165.88;;;5.86;100.00
20444;BME280;10381;53.730;10.010;2024-02-04T09:37:15;101165.88;;;5.86;100.00
20444;BME280;10381;53.730;10.010;2024-02-04T09:41:16;101159.59;;;5.89;100.00
20444;BME280;10381;53.730;10.010;2024-02-04T09:45:16;101151.63;;;5.90;100.00
20444;BME280;10381;53.730;10.010;2024-02-04T09:49:17;101161.19;;;5.91;100.00
20444;BME280;10381;53.730;10.010;2024-02-04T09:53:21;101164.75;;;5.90;100.00
20444;BME280;10381;53.730;10.010;2024-02-04T09:57:26;101171.38;;;5.97;100.00
20444;BME280;10381;53.730;10.010;2024-02-04T10:01:26;101155.66;;;5.96;100.00
20444;BME280;10381;53.730;10.010;2024-02-04T10:05:27;101149.56;;;5.95;100.00
20444;BME280;10381;53.730;10.010;2024-02-04T10:09:27;101159.88;;;5.98;100.00
20444;BME280;10381;53.730;10.010;2024-02-04T10:13:28;101147.50;;;6.01;100.00
20444;BME280;10381;53.730;10.010;2024-02-04T10:17:30;101160.34;;;6.05;100.00
20444;BME280;10381;53.730;10.010;2024-02-04T10:21:30;101149.44;;;6.11;100.00
20444;BME280;10381;53.730;10.010;2024-02-04T10:25:31;101156.19;;;6.15;100.00
20444;BME280;10381;53.730;10.010;2024-02-04T10:29:32;101143.50;;;6.22;100.00
20444;BME280;10381;53.730;10.010;2024-02-04T10:33:32;101153.63;;;6.28;100.00
20444;BME280;10381;53.730;10.010;2024-02-04T10:37:32;101142.16;;;6.29;100.00
20444;BME280;10381;53.730;10.010;2024-02-04T10:41:33;101122.38;;;6.36;100.00
20444;BME280;10381;53.730;10.010;2024-02-04T10:45:38;101147.16;;;6.47;100.00
20444;BME280;10381;53.730;10.010;2024-02-04T10:49:41;101145.19;;;6.50;100.00
20444;BME280;10381;53.730;10.010;2024-02-04T10:53:46;101146.69;;;6.54;100.00
20444;BME280;10381;53.730;10.010;2024-02-04T10:57:47;101135.41;;;6.52;100.00
20444;BME280;10381;53.730;10.010;2024-02-04T11:01:47;101138.56;;;6.57;100.00
20444;BME280;10381;53.730;10.010;2024-02-04T11:05:50;101112.13;;;6.59;100.00
20444;BME280;10381;53.730;10.010;2024-02-04T11:09:52;101132.56;;;6.55;100.00
20444;BME280;10381;53.730;10.010;2024-02-04T11:14:03;101127.00;;;6.60;100.00
20444;BME280;10381;53.730;10.010;2024-02-04T11:22:34;101125.63;;;6.67;100.00
20444;BME280;10381;53.730;10.010;2024-02-04T11:26:40;101121.88;;;6.71;100.00
20444;BME280;10381;53.730;10.010;2024-02-04T11:30:43;101126.91;;;6.74;100.00
20444;BME280;10381;53.730;10.010;2024-02-04T11:34:45;101130.09;;;6.79;100.00
20444;BME280;10381;53.730;10.010;2024-02-04T11:38:48;101130.69;;;6.70;100.00
20444;BME280;10381;53.730;10.010;2024-02-04T11:42:49;101119.75;;;6.76;100.00
20444;BME280;10381;53.730;10.010;2024-02-04T11:46:50;101110.16;;;6.75;100.00
20444;BME280;10381;53.730;10.010;2024-02-04T11:50:54;101131.97;;;6.77;100.00
20444;BME280;10381;53.730;10.010;2024-02-04T11:54:54;101124.81;;;6.79;100.00
20444;BME280;10381;53.730;10.010;2024-02-04T11:58:55;101108.06;;;6.80;100.00
20444;BME280;10381;53.730;10.010;2024-02-04T12:07:03;101129.69;;;6.86;100.00
20444;BME280;10381;53.730;10.010;2024-02-04T12:11:04;101129.47;;;6.89;100.00
20444;BME280;10381;53.730;10.010;2024-02-04T12:15:04;101127.28;;;6.95;100.00
20444;BME280;10381;53.730;10.010;2024-02-04T12:19:05;101111.34;;;6.97;100.00
20444;BME280;10381;53.730;10.010;2024-02-04T12:23:07;101105.75;;;7.01;100.00
20444;BME280;10381;53.730;10.010;2024-02-04T12:27:07;101100.84;;;7.10;100.00
20444;BME280;10381;53.730;10.010;2024-02-04T12:31:07;101094.38;;;7.14;100.00
20444;BME280;10381;53.730;10.010;2024-02-04T12:35:13;101112.50;;;7.18;100.00
20444;BME280;10381;53.730;10.010;2024-02-04T12:39:13;101123.59;;;7.11;100.00
20444;BME280;10381;53.730;10.010;2024-02-04T12:43:14;101105.97;;;7.11;100.00
20444;BME280;10381;53.730;10.010;2024-02-04T12:47:19;101105.34;;;7.20;100.00
20444;BME280;10381;53.730;10.010;2024-02-04T12:51:32;101091.94;;;7.23;100.00
20444;BME280;10381;53.730;10.010;2024-02-04T12:55:37;101104.81;;;7.28;100.00
20444;BME280;10381;53.730;10.010;2024-02-04T12:59:39;101111.13;;;7.25;100.00
20444;BME280;10381;53.730;10.010;2024-02-04T13:03:40;101104.81;;;7.28;100.00
20444;BME280;10381;53.730;10.010;2024-02-04T13:07:40;101097.03;;;7.27;100.00
20444;BME280;10381;53.730;10.010;2024-02-04T13:11:41;101100.72;;;7.24;100.00
20444;BME280;10381;53.730;10.010;2024-02-04T13:15:43;101104.59;;;7.18;100.00
20444;BME280;10381;53.730;10.010;2024-02-04T13:19:43;101111.34;;;7.22;100.00
20444;BME280;10381;53.730;10.010;2024-02-04T13:23:44;101090.69;;;7.29;100.00
20444;BME280;10381;53.730;10.010;2024-02-04T13:27:44;101089.75;;;7.30;100.00
20444;BME280;10381;53.730;10.010;2024-02-04T13:31:45;101092.47;;;7.29;100.00
20444;BME280;10381;53.730;10.010;2024-02-04T13:35:47;101091.53;;;7.30;100.00
20444;BME280;10381;53.730;10.010;2024-02-04T13:39:49;101087.19;;;7.29;100.00
20444;BME280;10381;53.730;10.010;2024-02-04T13:43:51;101095.56;;;7.22;100.00
20444;BME280;10381;53.730;10.010;2024-02-04T13:47:51;101077.00;;;7.24;100.00
20444;BME280;10381;53.730;10.010;2024-02-04T13:51:51;101063.28;;;7.19;100.00
20444;BME280;10381;53.730;10.010;2024-02-04T13:55:51;101065.91;;;7.19;100.00
20444;BME280;10381;53.730;10.010;2024-02-04T13:59:52;101062.88;;;7.12;100.00
20444;BME280;10381;53.730;10.010;2024-02-04T14:03:52;101067.28;;;7.12;100.00
20444;BME280;10381;53.730;10.010;2024-02-04T14:07:52;101064.66;;;7.12;100.00
20444;BME280;10381;53.730;10.010;2024-02-04T14:11:53;101054.13;;;7.12;100.00
20444;BME280;10381;53.730;10.010;2024-02-04T14:15:56;101056.47;;;7.03;100.00
20444;BME280;10381;53.730;10.010;2024-02-04T14:19:57;101043.50;;;7.00;100.00
20444;BME280;10381;53.730;10.010;2024-02-04T14:23:59;101033.81;;;7.01;100.00
20444;BME280;10381;53.730;10.010;2024-02-04T14:28:00;101027.56;;;7.02;100.00
20444;BME280;10381;53.730;10.010;2024-02-04T14:32:00;101034.22;;;6.95;100.00
20444;BME280;10381;53.730;10.010;2024-02-04T14:36:01;101035.72;;;6.86;100.00
20444;BME280;10381;53.730;10.010;2024-02-04T14:40:01;101036.31;;;6.90;100.00
20444;BME280;10381;53.730;10.010;2024-02-04T14:44:04;101029.59;;;6.86;100.00
20444;BME280;10381;53.730;10.010;2024-02-04T14:48:04;101034.88;;;6.86;100.00
20444;BME280;10381;53.730;10.010;2024-02-04T14:52:05;101026.31;;;6.82;100.00
20444;BME280;10381;53.730;10.010;2024-02-04T14:56:05;101023.06;;;6.78;100.00
20444;BME280;10381;53.730;10.010;2024-02-04T15:00:06;101024.97;;;6.76;100.00
20444;BME280;10381;53.730;10.010;2024-02-04T15:04:06;101025.16;;;6.73;100.00
20444;BME280;10381;53.730;10.010;2024-02-04T15:08:07;101015.59;;;6.72;100.00
20444;BME280;10381;53.730;10.010;2024-02-04T15:12:09;101012.00;;;6.73;100.00
20444;BME280;10381;53.730;10.010;2024-02-04T15:16:10;101011.91;;;6.75;100.00
20444;BME280;10381;53.730;10.010;2024-02-04T15:20:12;101003.38;;;6.71;100.00
20444;BME280;10381;53.730;10.010;2024-02-04T15:24:15;101011.91;;;6.75;100.00
20444;BME280;10381;53.730;10.010;2024-02-04T15:28:16;101003.06;;;6.76;100.00
20444;BME280;10381;53.730;10.010;2024-02-04T15:32:17;100995.47;;;6.71;100.00
20444;BME280;10381;53.730;10.010;2024-02-04T15:36:17;100990.22;;;6.71;100.00
20444;BME280;10381;53.730;10.010;2024-02-04T15:40:17;100981.56;;;6.69;100.00
20444;BME280;10381;53.730;10.010;2024-02-04T15:44:19;100994.63;;;6.58;100.00
20444;BME280;10381;53.730;10.010;2024-02-04T15:48:21;100974.41;;;6.46;100.00
20444;BME280;10381;53.730;10.010;2024-02-04T15:52:25;100973.75;;;6.42;100.00
20444;BME280;10381;53.730;10.010;2024-02-04T15:56:33;100958.09;;;6.40;100.00
20444;BME280;10381;53.730;10.010;2024-02-04T16:00:33;100955.66;;;6.37;100.00
20444;BME280;10381;53.730;10.010;2024-02-04T16:04:34;100942.38;;;6.26;100.00
20444;BME280;10381;53.730;10.010;2024-02-04T16:08:35;100930.91;;;6.14;100.00
20444;BME280;10381;53.730;10.010;2024-02-04T16:12:36;100933.63;;;6.13;100.00
20444;BME280;10381;53.730;10.010;2024-02-04T16:16:40;100914.91;;;6.05;100.00
20444;BME280;10381;53.730;10.010;2024-02-04T16:20:42;100906.56;;;5.98;100.00
20444;BME280;10381;53.730;10.010;2024-02-04T16:24:43;100894.56;;;5.94;100.00
20444;BME280;10381;53.730;10.010;2024-02-04T16:28:44;100888.66;;;5.90;100.00
20444;BME280;10381;53.730;10.010;2024-02-04T16:32:44;100871.22;;;5.89;100.00
20444;BME280;10381;53.730;10.010;2024-02-04T16:36:45;100871.91;;;5.91;100.00
20444;BME280;10381;53.730;10.010;2024-02-04T16:40:46;100861.41;;;5.91;100.00
20444;BME280;10381;53.730;10.010;2024-02-04T16:44:46;100872.78;;;5.92;100.00
20444;BME280;10381;53.730;10.010;2024-02-04T16:48:51;100870.81;;;5.95;100.00
20444;BME280;10381;53.730;10.010;2024-02-04T16:52:54;100841.13;;;5.93;100.00
20444;BME280;10381;53.730;10.010;2024-02-04T16:56:55;100844.19;;;5.87;100.00
20444;BME280;10381;53.730;10.010;2024-02-04T17:00:56;100836.28;;;5.87;100.00
20444;BME280;10381;53.730;10.010;2024-02-04T17:04:57;100839.78;;;6.01;100.00
20444;BME280;10381;53.730;10.010;2024-02-04T17:08:59;100820.28;;;5.90;100.00
20444;BME280;10381;53.730;10.010;2024-02-04T17:13:03;100843.22;;;5.88;100.00
20444;BME280;10381;53.730;10.010;2024-02-04T17:21:12;100796.09;;;5.85;100.00
20444;BME280;10381;53.730;10.010;2024-02-04T17:25:14;100797.03;;;5.84;100.00
20444;BME280;10381;53.730;10.010;2024-02-04T17:29:17;100785.91;;;5.81;100.00
20444;BME280;10381;53.730;10.010;2024-02-04T17:33:17;100754.44;;;5.79;100.00
20444;BME280;10381;53.730;10.010;2024-02-04T17:37:18;100757.81;;;5.81;100.00
20444;BME280;10381;53.730;10.010;2024-02-04T17:41:18;100739.94;;;5.86;100.00
20444;BME280;10381;53.730;10.010;2024-02-04T17:45:20;100739.19;;;5.84;100.00
20444;BME280;10381;53.730;10.010;2024-02-04T17:49:20;100737.31;;;5.86;100.00
20444;BME280;10381;53.730;10.010;2024-02-04T17:53:21;100752.34;;;5.84;100.00
20444;BME280;10381;53.730;10.010;2024-02-04T17:57:22;100734.66;;;5.86;100.00
20444;BME280;10381;53.730;10.010;2024-02-04T18:01:22;100741.13;;;5.95;100.00
20444;BME280;10381;53.730;10.010;2024-02-04T18:05:23;100737.34;;;5.99;100.00
20444;BME280;10381;53.730;10.010;2024-02-04T18:09:23;100737.53;;;5.96;100.00
20444;BME280;10381;53.730;10.010;2024-02-04T18:13:24;100735.94;;;5.93;100.00
20444;BME280;10381;53.730;10.010;2024-02-04T18:17:24;100719.53;;;5.90;100.00
20444;BME280;10381;53.730;10.010;2024-02-04T18:21:25;100707.97;;;5.92;100.00
20444;BME280;10381;53.730;10.010;2024-02-04T18:25:25;100713.22;;;5.92;100.00
20444;BME280;10381;53.730;10.010;2024-02-04T18:29:25;100693.78;;;5.95;100.00
20444;BME280;10381;53.730;10.010;2024-02-04T18:33:26;100690.09;;;5.97;100.00
20444;BME280;10381;53.730;10.010;2024-02-04T18:37:28;100678.28;;;6.03;100.00
20444;BME280;10381;53.730;10.010;2024-02-04T18:41:32;100676.84;;;5.99;100.00
20444;BME280;10381;53.730;10.010;2024-02-04T18:45:32;100657.03;;;5.93;100.00
20444;BME280;10381;53.730;10.010;2024-02-04T18:49:37;100646.13;;;6.00;100.00
20444;BME280;10381;53.730;10.010;2024-02-04T18:53:38;100630.59;;;5.96;100.00
20444;BME280;10381;53.730;10.010;2024-02-04T18:57:38;100615.41;;;6.00;100.00
20444;BME280;10381;53.730;10.010;2024-02-04T19:01:41;100605.00;;;5.98;100.00
20444;BME280;10381;53.730;10.010;2024-02-04T19:05:43;100591.00;;;5.98;100.00
20444;BME280;10381;53.730;10.010;2024-02-04T19:09:43;100580.25;;;6.01;100.00
20444;BME280;10381;53.730;10.010;2024-02-04T19:13:43;100576.94;;;5.99;100.00
20444;BME280;10381;53.730;10.010;2024-02-04T19:17:46;100559.03;;;6.04;100.00
20444;BME280;10381;53.730;10.010;2024-02-04T19:21:50;100537.25;;;6.02;100.00
20444;BME280;10381;53.730;10.010;2024-02-04T19:25:52;100531.25;;;6.00;100.00
20444;BME280;10381;53.730;10.010;2024-02-04T19:29:59;100516.31;;;6.01;100.00
20444;BME280;10381;53.730;10.010;2024-02-04T19:33:59;100504.72;;;6.03;100.00
20444;BME280;10381;53.730;10.010;2024-02-04T19:37:59;100494.22;;;6.03;100.00
20444;BME280;10381;53.730;10.010;2024-02-04T19:42:00;100490.84;;;6.01;100.00
20444;BME280;10381;53.730;10.010;2024-02-04T19:46:01;100468.03;;;6.02;100.00
20444;BME280;10381;53.730;10.010;2024-02-04T19:50:02;100447.94;;;6.01;100.00
20444;BME280;10381;53.730;10.010;2024-02-04T19:54:04;100434.69;;;6.02;100.00
20444;BME280;10381;53.730;10.010;2024-02-04T19:58:04;100436.59;;;6.00;100.00
20444;BME280;10381;53.730;10.010;2024-02-04T20:02:05;100425.97;;;6.02;100.00
20444;BME280;10381;53.730;10.010;2024-02-04T20:06:06;100408.50;;;6.01;100.00
20444;BME280;10381;53.730;10.010;2024-02-04T20:10:07;100401.34;;;6.03;100.00
20444;BME280;10381;53.730;10.010;2024-02-04T20:14:07;100402.31;;;6.02;100.00
20444;BME280;10381;53.730;10.010;2024-02-04T20:18:08;100381.25;;;6.02;100.00
20444;BME280;10381;53.730;10.010;2024-02-04T20:22:08;100378.63;;;6.02;100.00
20444;BME280;10381;53.730;10.010;2024-02-04T20:26:09;100363.78;;;6.01;100.00
20444;BME280;10381;53.730;10.010;2024-02-04T20:30:10;100346.34;;;6.00;100.00
20444;BME280;10381;53.730;10.010;2024-02-04T20:34:13;100338.47;;;6.00;100.00
20444;BME280;10381;53.730;10.010;2024-02-04T20:38:14;100328.78;;;6.00;100.00
20444;BME280;10381;53.730;10.010;2024-02-04T20:42:14;100295.44;;;6.01;100.00
20444;BME280;10381;53.730;10.010;2024-02-04T20:46:15;100264.84;;;6.00;100.00
20444;BME280;10381;53.730;10.010;2024-02-04T20:50:15;100267.47;;;6.00;100.00
20444;BME280;10381;53.730;10.010;2024-02-04T20:54:15;100242.00;;;6.00;100.00
20444;BME280;10381;53.730;10.010;2024-02-04T20:58:16;100220.13;;;6.00;100.00